CheckWX is a tool to help pilots better visualize weather data.  It is not intended as a substitute for an official pre-flight weather briefing.

14:36:20 UTC

KISM TAF
Kissimmee Gateway Airport
Orlando, Florida, USA
KISM 221420Z 2214/2312 22005KT P6SM SCT005 TEMPO 2214/2215 BKN005 FM221500 21007KT P6SM FEW030 FM221800 24008KT P6SM VCSH SCT035 BKN060 FM230000 30005KT P6SM SCT040 BKN250 FM230800 35007KT P6SM BKN250

Oct-22@
14:00 UTC

Oct-22 @ 14:00 UTC

Oct-22@
15:00 UTC

Oct-22 @ 15:00 UTC

KISM 221420Z 2214/2312 22005KT P6SM SCT005
Wind
  • 220° at 5 KTS
Cloud Levels
  • Scattered at 500' AGL

Oct-22@
14:00 UTC

Oct-22 @ 14:00 UTC

Oct-22@
15:00 UTC

Oct-22 @ 15:00 UTC

TEMPO 2214/2215 BKN005

Temporary

Temporary Changes expected for less than half the time period

Cloud Levels
  • Broken at 500' AGL

Oct-22@
15:00 UTC

Oct-22 @ 15:00 UTC

Oct-22@
18:00 UTC

Oct-22 @ 18:00 UTC

FM221500 21007KT P6SM FEW030

From

From Standard forecast or significant change

Wind
  • 210° at 7 KTS
Cloud Levels
  • Few at 3,000' AGL

Oct-22@
18:00 UTC

Oct-22 @ 18:00 UTC

Oct-23@
00:00 UTC

Oct-23 @ 00:00 UTC

FM221800 24008KT P6SM VCSH SCT035 BKN060

From

From Standard forecast or significant change

Wind
  • 240° at 8 KTS
Cloud Levels
  • Scattered at 3,500' AGL
  • Broken at 6,000' AGL

Oct-23@
00:00 UTC

Oct-23 @ 00:00 UTC

Oct-23@
08:00 UTC

Oct-23 @ 08:00 UTC

FM230000 30005KT P6SM SCT040 BKN250

From

From Standard forecast or significant change

Wind
  • 300° at 5 KTS
Cloud Levels
  • Scattered at 4,000' AGL
  • Broken at 25,000' AGL

Oct-23@
08:00 UTC

Oct-23 @ 08:00 UTC

Oct-23@
12:00 UTC

Oct-23 @ 12:00 UTC

FM230800 35007KT P6SM BKN250

From

From Standard forecast or significant change

Wind
  • 350° at 7 KTS
Cloud Levels
  • Broken at 25,000' AGL